sensor_id;sensor_type;location;lat;lon;timestamp;P1;durP1;ratioP1;P2;durP2;ratioP2
58842;SDS011;44614;54.356;10.100;2023-05-02T00:00:02;17.45;;;7.93;;
58842;SDS011;44614;54.356;10.100;2023-05-02T00:02:28;15.45;;;7.57;;
58842;SDS011;44614;54.356;10.100;2023-05-02T00:04:53;18.15;;;7.30;;
58842;SDS011;44614;54.356;10.100;2023-05-02T00:07:19;17.63;;;7.82;;
58842;SDS011;44614;54.356;10.100;2023-05-02T00:09:44;24.70;;;7.13;;
58842;SDS011;44614;54.356;10.100;2023-05-02T00:12:10;22.45;;;7.13;;
58842;SDS011;44614;54.356;10.100;2023-05-02T00:14:35;17.70;;;7.00;;
58842;SDS011;44614;54.356;10.100;2023-05-02T00:17:01;20.00;;;9.73;;
58842;SDS011;44614;54.356;10.100;2023-05-02T00:19:26;21.70;;;7.30;;
58842;SDS011;44614;54.356;10.100;2023-05-02T00:21:51;19.65;;;7.70;;
58842;SDS011;44614;54.356;10.100;2023-05-02T00:24:17;17.55;;;6.97;;
58842;SDS011;44614;54.356;10.100;2023-05-02T00:26:43;18.38;;;8.00;;
58842;SDS011;44614;54.356;10.100;2023-05-02T00:29:08;21.73;;;7.72;;
58842;SDS011;44614;54.356;10.100;2023-05-02T00:31:33;16.52;;;7.05;;
58842;SDS011;44614;54.356;10.100;2023-05-02T00:33:59;17.88;;;6.78;;
58842;SDS011;44614;54.356;10.100;2023-05-02T00:36:25;20.80;;;8.25;;
58842;SDS011;44614;54.356;10.100;2023-05-02T00:38:51;21.08;;;6.88;;
58842;SDS011;44614;54.356;10.100;2023-05-02T00:41:16;18.83;;;7.25;;
58842;SDS011;44614;54.356;10.100;2023-05-02T00:43:42;19.58;;;8.15;;
58842;SDS011;44614;54.356;10.100;2023-05-02T00:46:07;19.97;;;6.03;;
58842;SDS011;44614;54.356;10.100;2023-05-02T00:48:36;17.35;;;6.72;;
58842;SDS011;44614;54.356;10.100;2023-05-02T00:51:01;15.30;;;5.90;;
58842;SDS011;44614;54.356;10.100;2023-05-02T00:53:29;13.40;;;5.53;;
58842;SDS011;44614;54.356;10.100;2023-05-02T00:55:56;12.38;;;4.53;;
58842;SDS011;44614;54.356;10.100;2023-05-02T00:58:23;9.80;;;4.75;;
58842;SDS011;44614;54.356;10.100;2023-05-02T01:14:33;3.17;;;1.58;;
58842;SDS011;44614;54.356;10.100;2023-05-02T01:17:03;3.63;;;2.20;;
58842;SDS011;44614;54.356;10.100;2023-05-02T01:19:34;6.43;;;2.47;;
58842;SDS011;44614;54.356;10.100;2023-05-02T01:22:02;5.20;;;2.35;;
58842;SDS011;44614;54.356;10.100;2023-05-02T01:24:41;4.45;;;2.10;;
58842;SDS011;44614;54.356;10.100;2023-05-02T01:30:10;5.05;;;2.30;;
58842;SDS011;44614;54.356;10.100;2023-05-02T01:32:38;6.95;;;2.10;;
58842;SDS011;44614;54.356;10.100;2023-05-02T01:35:05;8.52;;;1.75;;
58842;SDS011;44614;54.356;10.100;2023-05-02T01:37:32;3.55;;;1.50;;
58842;SDS011;44614;54.356;10.100;2023-05-02T01:40:00;4.20;;;1.73;;
58842;SDS011;44614;54.356;10.100;2023-05-02T01:42:27;5.97;;;1.63;;
58842;SDS011;44614;54.356;10.100;2023-05-02T01:44:54;5.40;;;2.20;;
58842;SDS011;44614;54.356;10.100;2023-05-02T01:47:20;6.67;;;1.60;;
58842;SDS011;44614;54.356;10.100;2023-05-02T01:49:48;5.43;;;1.55;;
58842;SDS011;44614;54.356;10.100;2023-05-02T01:52:13;11.02;;;2.60;;
58842;SDS011;44614;54.356;10.100;2023-05-02T01:54:41;20.77;;;2.25;;
58842;SDS011;44614;54.356;10.100;2023-05-02T01:57:07;9.05;;;2.05;;
58842;SDS011;44614;54.356;10.100;2023-05-02T02:02:55;4.95;;;1.67;;
58842;SDS011;44614;54.356;10.100;2023-05-02T02:05:22;8.02;;;2.72;;
58842;SDS011;44614;54.356;10.100;2023-05-02T02:07:48;4.43;;;1.97;;
58842;SDS011;44614;54.356;10.100;2023-05-02T02:10:14;16.25;;;3.83;;
58842;SDS011;44614;54.356;10.100;2023-05-02T02:12:42;7.50;;;2.47;;
58842;SDS011;44614;54.356;10.100;2023-05-02T02:17:59;10.50;;;2.13;;
58842;SDS011;44614;54.356;10.100;2023-05-02T02:20:27;9.13;;;2.35;;
58842;SDS011;44614;54.356;10.100;2023-05-02T02:22:54;9.57;;;3.17;;
58842;SDS011;44614;54.356;10.100;2023-05-02T02:25:21;4.90;;;2.50;;
58842;SDS011;44614;54.356;10.100;2023-05-02T02:27:47;7.63;;;2.35;;
58842;SDS011;44614;54.356;10.100;2023-05-02T02:30:13;12.25;;;2.53;;
58842;SDS011;44614;54.356;10.100;2023-05-02T02:32:40;8.00;;;2.85;;
58842;SDS011;44614;54.356;10.100;2023-05-02T02:35:05;5.43;;;2.07;;
58842;SDS011;44614;54.356;10.100;2023-05-02T02:37:32;12.45;;;2.03;;
58842;SDS011;44614;54.356;10.100;2023-05-02T02:40:07;9.20;;;2.17;;
58842;SDS011;44614;54.356;10.100;2023-05-02T02:42:54;13.45;;;2.95;;
58842;SDS011;44614;54.356;10.100;2023-05-02T02:56:39;9.23;;;2.47;;
58842;SDS011;44614;54.356;10.100;2023-05-02T03:01:48;8.85;;;2.78;;
58842;SDS011;44614;54.356;10.100;2023-05-02T03:04:26;7.25;;;2.15;;
58842;SDS011;44614;54.356;10.100;2023-05-02T03:06:54;9.13;;;2.03;;
58842;SDS011;44614;54.356;10.100;2023-05-02T03:09:19;12.40;;;2.95;;
58842;SDS011;44614;54.356;10.100;2023-05-02T03:11:45;8.90;;;2.30;;
58842;SDS011;44614;54.356;10.100;2023-05-02T03:14:10;9.75;;;2.30;;
58842;SDS011;44614;54.356;10.100;2023-05-02T03:16:39;5.55;;;2.50;;
58842;SDS011;44614;54.356;10.100;2023-05-02T03:19:05;7.55;;;2.25;;
58842;SDS011;44614;54.356;10.100;2023-05-02T03:21:31;14.27;;;2.25;;
58842;SDS011;44614;54.356;10.100;2023-05-02T03:24:01;7.82;;;2.55;;
58842;SDS011;44614;54.356;10.100;2023-05-02T03:26:27;7.40;;;1.98;;
58842;SDS011;44614;54.356;10.100;2023-05-02T03:28:53;6.50;;;2.03;;
58842;SDS011;44614;54.356;10.100;2023-05-02T03:31:19;6.47;;;2.47;;
58842;SDS011;44614;54.356;10.100;2023-05-02T03:33:45;11.63;;;2.17;;
58842;SDS011;44614;54.356;10.100;2023-05-02T03:36:11;9.10;;;1.75;;
58842;SDS011;44614;54.356;10.100;2023-05-02T03:38:36;5.18;;;2.00;;
58842;SDS011;44614;54.356;10.100;2023-05-02T03:41:02;6.25;;;1.45;;
58842;SDS011;44614;54.356;10.100;2023-05-02T03:43:28;8.57;;;2.50;;
58842;SDS011;44614;54.356;10.100;2023-05-02T03:45:53;11.85;;;2.30;;
58842;SDS011;44614;54.356;10.100;2023-05-02T03:48:19;8.75;;;2.45;;
58842;SDS011;44614;54.356;10.100;2023-05-02T03:50:44;7.95;;;2.15;;
58842;SDS011;44614;54.356;10.100;2023-05-02T03:53:13;11.55;;;1.95;;
58842;SDS011;44614;54.356;10.100;2023-05-02T03:55:40;8.85;;;2.13;;
58842;SDS011;44614;54.356;10.100;2023-05-02T03:58:06;7.73;;;2.20;;
58842;SDS011;44614;54.356;10.100;2023-05-02T04:00:32;9.82;;;2.25;;
58842;SDS011;44614;54.356;10.100;2023-05-02T04:02:59;2.50;;;1.57;;
58842;SDS011;44614;54.356;10.100;2023-05-02T04:05:25;13.60;;;2.10;;
58842;SDS011;44614;54.356;10.100;2023-05-02T04:07:50;3.88;;;2.08;;
58842;SDS011;44614;54.356;10.100;2023-05-02T04:10:16;7.88;;;2.13;;
58842;SDS011;44614;54.356;10.100;2023-05-02T04:12:42;11.90;;;2.17;;
58842;SDS011;44614;54.356;10.100;2023-05-02T04:15:08;7.45;;;2.17;;
58842;SDS011;44614;54.356;10.100;2023-05-02T04:17:34;8.40;;;1.65;;
58842;SDS011;44614;54.356;10.100;2023-05-02T04:20:00;6.68;;;2.20;;
58842;SDS011;44614;54.356;10.100;2023-05-02T04:22:25;8.00;;;1.88;;
58842;SDS011;44614;54.356;10.100;2023-05-02T04:24:51;3.72;;;2.28;;
58842;SDS011;44614;54.356;10.100;2023-05-02T04:27:17;8.45;;;2.55;;
58842;SDS011;44614;54.356;10.100;2023-05-02T04:29:42;5.33;;;1.50;;
58842;SDS011;44614;54.356;10.100;2023-05-02T04:32:08;11.60;;;2.40;;
58842;SDS011;44614;54.356;10.100;2023-05-02T04:34:33;2.47;;;1.25;;
58842;SDS011;44614;54.356;10.100;2023-05-02T04:36:59;4.70;;;1.55;;
58842;SDS011;44614;54.356;10.100;2023-05-02T04:39:25;3.47;;;1.73;;
58842;SDS011;44614;54.356;10.100;2023-05-02T04:41:50;3.60;;;1.30;;
58842;SDS011;44614;54.356;10.100;2023-05-02T04:44:16;2.97;;;1.73;;
58842;SDS011;44614;54.356;10.100;2023-05-02T04:46:42;5.75;;;1.48;;
58842;SDS011;44614;54.356;10.100;2023-05-02T04:49:07;11.93;;;2.00;;
58842;SDS011;44614;54.356;10.100;2023-05-02T04:51:34;11.73;;;1.90;;
58842;SDS011;44614;54.356;10.100;2023-05-02T04:53:59;6.80;;;1.73;;
58842;SDS011;44614;54.356;10.100;2023-05-02T04:56:24;6.33;;;1.53;;
58842;SDS011;44614;54.356;10.100;2023-05-02T04:58:50;2.05;;;1.05;;
58842;SDS011;44614;54.356;10.100;2023-05-02T05:01:15;2.58;;;1.10;;
58842;SDS011;44614;54.356;10.100;2023-05-02T05:03:42;4.50;;;1.92;;
58842;SDS011;44614;54.356;10.100;2023-05-02T05:06:07;5.25;;;1.27;;
58842;SDS011;44614;54.356;10.100;2023-05-02T05:08:32;6.68;;;1.55;;
58842;SDS011;44614;54.356;10.100;2023-05-02T05:10:58;4.53;;;1.63;;
58842;SDS011;44614;54.356;10.100;2023-05-02T05:13:23;4.95;;;1.58;;
58842;SDS011;44614;54.356;10.100;2023-05-02T05:15:48;4.00;;;1.60;;
58842;SDS011;44614;54.356;10.100;2023-05-02T05:18:13;3.60;;;1.60;;
58842;SDS011;44614;54.356;10.100;2023-05-02T05:20:39;6.93;;;1.55;;
58842;SDS011;44614;54.356;10.100;2023-05-02T05:23:04;5.17;;;1.87;;
58842;SDS011;44614;54.356;10.100;2023-05-02T05:25:30;7.72;;;1.33;;
58842;SDS011;44614;54.356;10.100;2023-05-02T05:27:55;5.15;;;1.30;;
58842;SDS011;44614;54.356;10.100;2023-05-02T05:30:21;8.85;;;1.80;;
58842;SDS011;44614;54.356;10.100;2023-05-02T05:32:46;10.38;;;1.92;;
58842;SDS011;44614;54.356;10.100;2023-05-02T05:35:11;11.25;;;1.70;;
58842;SDS011;44614;54.356;10.100;2023-05-02T05:37:37;4.45;;;1.65;;
58842;SDS011;44614;54.356;10.100;2023-05-02T05:40:04;6.87;;;1.47;;
58842;SDS011;44614;54.356;10.100;2023-05-02T05:42:31;6.90;;;1.38;;
58842;SDS011;44614;54.356;10.100;2023-05-02T05:44:56;5.57;;;1.02;;
58842;SDS011;44614;54.356;10.100;2023-05-02T05:47:21;3.53;;;0.98;;
58842;SDS011;44614;54.356;10.100;2023-05-02T05:49:47;2.60;;;1.27;;
58842;SDS011;44614;54.356;10.100;2023-05-02T05:52:12;5.72;;;2.47;;
58842;SDS011;44614;54.356;10.100;2023-05-02T05:54:38;6.07;;;1.15;;
58842;SDS011;44614;54.356;10.100;2023-05-02T05:57:03;3.77;;;1.23;;
58842;SDS011;44614;54.356;10.100;2023-05-02T05:59:28;9.73;;;2.77;;
58842;SDS011;44614;54.356;10.100;2023-05-02T06:01:54;3.60;;;1.10;;
58842;SDS011;44614;54.356;10.100;2023-05-02T06:04:19;4.43;;;1.20;;
58842;SDS011;44614;54.356;10.100;2023-05-02T06:06:44;6.50;;;2.03;;
58842;SDS011;44614;54.356;10.100;2023-05-02T06:09:10;2.05;;;1.15;;
58842;SDS011;44614;54.356;10.100;2023-05-02T06:11:36;3.38;;;1.23;;
58842;SDS011;44614;54.356;10.100;2023-05-02T06:14:01;8.48;;;1.77;;
58842;SDS011;44614;54.356;10.100;2023-05-02T06:16:27;7.90;;;1.30;;
58842;SDS011;44614;54.356;10.100;2023-05-02T06:18:52;2.93;;;1.57;;
58842;SDS011;44614;54.356;10.100;2023-05-02T06:21:17;9.55;;;2.10;;
58842;SDS011;44614;54.356;10.100;2023-05-02T06:23:43;6.28;;;0.95;;
58842;SDS011;44614;54.356;10.100;2023-05-02T06:26:09;24.50;;;2.53;;
58842;SDS011;44614;54.356;10.100;2023-05-02T06:28:35;11.98;;;1.58;;
58842;SDS011;44614;54.356;10.100;2023-05-02T06:31:01;2.97;;;1.33;;
58842;SDS011;44614;54.356;10.100;2023-05-02T06:33:28;4.75;;;1.38;;
58842;SDS011;44614;54.356;10.100;2023-05-02T06:35:54;12.90;;;2.20;;
58842;SDS011;44614;54.356;10.100;2023-05-02T06:38:19;6.28;;;1.58;;
58842;SDS011;44614;54.356;10.100;2023-05-02T06:40:44;3.05;;;1.50;;
58842;SDS011;44614;54.356;10.100;2023-05-02T06:43:10;5.55;;;1.05;;
58842;SDS011;44614;54.356;10.100;2023-05-02T06:45:36;3.53;;;1.50;;
58842;SDS011;44614;54.356;10.100;2023-05-02T06:48:02;0.88;;;0.80;;
58842;SDS011;44614;54.356;10.100;2023-05-02T06:50:28;4.43;;;1.67;;
58842;SDS011;44614;54.356;10.100;2023-05-02T06:52:53;4.05;;;1.20;;
58842;SDS011;44614;54.356;10.100;2023-05-02T06:55:19;3.42;;;1.05;;
58842;SDS011;44614;54.356;10.100;2023-05-02T06:57:45;3.65;;;1.20;;
58842;SDS011;44614;54.356;10.100;2023-05-02T07:00:10;7.53;;;1.63;;
58842;SDS011;44614;54.356;10.100;2023-05-02T07:02:36;6.05;;;1.13;;
58842;SDS011;44614;54.356;10.100;2023-05-02T07:05:01;4.60;;;1.30;;
58842;SDS011;44614;54.356;10.100;2023-05-02T07:07:27;2.58;;;1.05;;
58842;SDS011;44614;54.356;10.100;2023-05-02T07:09:52;6.07;;;1.30;;
58842;SDS011;44614;54.356;10.100;2023-05-02T07:12:18;4.75;;;1.33;;
58842;SDS011;44614;54.356;10.100;2023-05-02T07:14:43;4.82;;;1.33;;
58842;SDS011;44614;54.356;10.100;2023-05-02T07:17:10;2.92;;;0.68;;
58842;SDS011;44614;54.356;10.100;2023-05-02T07:19:36;4.53;;;1.50;;
58842;SDS011;44614;54.356;10.100;2023-05-02T07:22:01;5.10;;;1.60;;
58842;SDS011;44614;54.356;10.100;2023-05-02T07:24:26;2.72;;;1.25;;
58842;SDS011;44614;54.356;10.100;2023-05-02T07:26:52;4.07;;;1.23;;
58842;SDS011;44614;54.356;10.100;2023-05-02T07:29:17;2.43;;;0.90;;
58842;SDS011;44614;54.356;10.100;2023-05-02T07:31:42;2.97;;;0.73;;
58842;SDS011;44614;54.356;10.100;2023-05-02T07:34:07;4.35;;;1.23;;
58842;SDS011;44614;54.356;10.100;2023-05-02T07:36:33;12.25;;;1.83;;
58842;SDS011;44614;54.356;10.100;2023-05-02T07:38:58;4.25;;;1.30;;
58842;SDS011;44614;54.356;10.100;2023-05-02T07:41:23;5.65;;;2.03;;
58842;SDS011;44614;54.356;10.100;2023-05-02T07:43:49;2.83;;;1.10;;
58842;SDS011;44614;54.356;10.100;2023-05-02T07:46:14;5.18;;;1.23;;
58842;SDS011;44614;54.356;10.100;2023-05-02T07:48:39;3.47;;;1.27;;
58842;SDS011;44614;54.356;10.100;2023-05-02T07:53:32;3.35;;;1.10;;
58842;SDS011;44614;54.356;10.100;2023-05-02T07:55:58;2.80;;;0.95;;
58842;SDS011;44614;54.356;10.100;2023-05-02T07:58:23;2.30;;;1.10;;
58842;SDS011;44614;54.356;10.100;2023-05-02T08:00:48;3.63;;;1.55;;
58842;SDS011;44614;54.356;10.100;2023-05-02T08:03:14;3.33;;;0.90;;
58842;SDS011;44614;54.356;10.100;2023-05-02T08:05:39;3.42;;;1.08;;
58842;SDS011;44614;54.356;10.100;2023-05-02T08:08:05;5.53;;;0.75;;
58842;SDS011;44614;54.356;10.100;2023-05-02T08:10:31;7.73;;;1.03;;
58842;SDS011;44614;54.356;10.100;2023-05-02T08:12:56;4.93;;;1.30;;
58842;SDS011;44614;54.356;10.100;2023-05-02T08:15:22;2.80;;;1.02;;
58842;SDS011;44614;54.356;10.100;2023-05-02T08:17:47;5.75;;;1.33;;
58842;SDS011;44614;54.356;10.100;2023-05-02T08:20:12;5.70;;;1.75;;
58842;SDS011;44614;54.356;10.100;2023-05-02T08:22:38;3.90;;;1.47;;
58842;SDS011;44614;54.356;10.100;2023-05-02T08:25:03;3.90;;;1.45;;
58842;SDS011;44614;54.356;10.100;2023-05-02T08:27:28;7.90;;;1.88;;
58842;SDS011;44614;54.356;10.100;2023-05-02T08:29:54;4.10;;;1.05;;
58842;SDS011;44614;54.356;10.100;2023-05-02T08:32:19;2.05;;;1.10;;
58842;SDS011;44614;54.356;10.100;2023-05-02T08:34:46;7.45;;;1.67;;
58842;SDS011;44614;54.356;10.100;2023-05-02T08:37:11;5.23;;;2.40;;
58842;SDS011;44614;54.356;10.100;2023-05-02T08:39:37;1.52;;;0.70;;
58842;SDS011;44614;54.356;10.100;2023-05-02T08:42:06;2.85;;;1.10;;
58842;SDS011;44614;54.356;10.100;2023-05-02T08:44:32;5.57;;;0.98;;
58842;SDS011;44614;54.356;10.100;2023-05-02T08:46:57;1.98;;;0.88;;
58842;SDS011;44614;54.356;10.100;2023-05-02T08:49:24;6.60;;;1.55;;
58842;SDS011;44614;54.356;10.100;2023-05-02T08:51:50;3.00;;;1.10;;
58842;SDS011;44614;54.356;10.100;2023-05-02T08:54:18;2.80;;;1.60;;
58842;SDS011;44614;54.356;10.100;2023-05-02T08:56:45;9.40;;;1.60;;
58842;SDS011;44614;54.356;10.100;2023-05-02T08:59:11;2.37;;;0.90;;
58842;SDS011;44614;54.356;10.100;2023-05-02T09:01:36;4.63;;;2.13;;
58842;SDS011;44614;54.356;10.100;2023-05-02T09:04:05;10.63;;;1.23;;
58842;SDS011;44614;54.356;10.100;2023-05-02T09:06:31;6.33;;;1.63;;
58842;SDS011;44614;54.356;10.100;2023-05-02T09:08:58;9.73;;;2.23;;
58842;SDS011;44614;54.356;10.100;2023-05-02T09:11:24;3.40;;;0.90;;
58842;SDS011;44614;54.356;10.100;2023-05-02T09:13:50;9.63;;;1.23;;
58842;SDS011;44614;54.356;10.100;2023-05-02T09:16:20;4.22;;;1.10;;
58842;SDS011;44614;54.356;10.100;2023-05-02T09:18:56;4.60;;;1.10;;
58842;SDS011;44614;54.356;10.100;2023-05-02T09:21:23;4.30;;;1.30;;
58842;SDS011;44614;54.356;10.100;2023-05-02T09:26:18;3.00;;;1.25;;
58842;SDS011;44614;54.356;10.100;2023-05-02T09:28:48;9.57;;;1.23;;
58842;SDS011;44614;54.356;10.100;2023-05-02T09:31:18;3.13;;;1.05;;
58842;SDS011;44614;54.356;10.100;2023-05-02T09:33:50;6.35;;;1.00;;
58842;SDS011;44614;54.356;10.100;2023-05-02T09:36:17;4.53;;;1.20;;
58842;SDS011;44614;54.356;10.100;2023-05-02T09:38:44;8.45;;;1.17;;
58842;SDS011;44614;54.356;10.100;2023-05-02T09:41:11;5.05;;;1.38;;
58842;SDS011;44614;54.356;10.100;2023-05-02T09:43:37;3.27;;;2.03;;
58842;SDS011;44614;54.356;10.100;2023-05-02T09:46:04;3.88;;;1.77;;
58842;SDS011;44614;54.356;10.100;2023-05-02T09:48:31;5.93;;;1.30;;
58842;SDS011;44614;54.356;10.100;2023-05-02T09:50:58;1.98;;;1.10;;
58842;SDS011;44614;54.356;10.100;2023-05-02T09:53:24;3.60;;;1.10;;
58842;SDS011;44614;54.356;10.100;2023-05-02T09:56:03;8.10;;;1.20;;
58842;SDS011;44614;54.356;10.100;2023-05-02T09:58:29;2.85;;;1.30;;
58842;SDS011;44614;54.356;10.100;2023-05-02T10:00:55;3.63;;;1.50;;
58842;SDS011;44614;54.356;10.100;2023-05-02T10:03:22;3.42;;;1.00;;
58842;SDS011;44614;54.356;10.100;2023-05-02T10:05:49;6.78;;;1.67;;
58842;SDS011;44614;54.356;10.100;2023-05-02T10:08:17;4.53;;;1.25;;
58842;SDS011;44614;54.356;10.100;2023-05-02T10:10:49;4.97;;;1.13;;
58842;SDS011;44614;54.356;10.100;2023-05-02T10:13:18;6.35;;;1.33;;
58842;SDS011;44614;54.356;10.100;2023-05-02T10:15:47;3.75;;;1.50;;
58842;SDS011;44614;54.356;10.100;2023-05-02T10:18:16;3.67;;;1.17;;
58842;SDS011;44614;54.356;10.100;2023-05-02T10:21:04;3.55;;;1.20;;
58842;SDS011;44614;54.356;10.100;2023-05-02T10:23:32;4.88;;;1.27;;
58842;SDS011;44614;54.356;10.100;2023-05-02T10:25:57;3.37;;;1.47;;
58842;SDS011;44614;54.356;10.100;2023-05-02T10:28:23;3.10;;;0.80;;
58842;SDS011;44614;54.356;10.100;2023-05-02T10:30:50;4.15;;;1.17;;
58842;SDS011;44614;54.356;10.100;2023-05-02T10:33:17;3.28;;;0.93;;
58842;SDS011;44614;54.356;10.100;2023-05-02T10:35:45;6.93;;;2.28;;
58842;SDS011;44614;54.356;10.100;2023-05-02T10:38:19;9.77;;;1.88;;
58842;SDS011;44614;54.356;10.100;2023-05-02T10:40:55;5.25;;;1.02;;
58842;SDS011;44614;54.356;10.100;2023-05-02T10:43:25;10.15;;;1.38;;
58842;SDS011;44614;54.356;10.100;2023-05-02T10:45:53;6.40;;;1.58;;
58842;SDS011;44614;54.356;10.100;2023-05-02T10:48:19;3.65;;;0.98;;
58842;SDS011;44614;54.356;10.100;2023-05-02T10:50:52;2.17;;;0.82;;
58842;SDS011;44614;54.356;10.100;2023-05-02T10:53:29;3.10;;;0.95;;
58842;SDS011;44614;54.356;10.100;2023-05-02T10:58:52;3.83;;;1.83;;
58842;SDS011;44614;54.356;10.100;2023-05-02T11:06:31;4.50;;;1.17;;
58842;SDS011;44614;54.356;10.100;2023-05-02T11:14:09;5.53;;;1.52;;
58842;SDS011;44614;54.356;10.100;2023-05-02T11:19:19;2.47;;;1.08;;
58842;SDS011;44614;54.356;10.100;2023-05-02T11:21:45;3.27;;;1.73;;
58842;SDS011;44614;54.356;10.100;2023-05-02T11:29:55;6.25;;;1.95;;
58842;SDS011;44614;54.356;10.100;2023-05-02T11:34:47;6.55;;;1.50;;
58842;SDS011;44614;54.356;10.100;2023-05-02T11:37:17;6.05;;;1.40;;
58842;SDS011;44614;54.356;10.100;2023-05-02T11:39:44;5.05;;;1.13;;
58842;SDS011;44614;54.356;10.100;2023-05-02T11:44:57;7.40;;;1.70;;
58842;SDS011;44614;54.356;10.100;2023-05-02T11:47:24;2.88;;;1.40;;
58842;SDS011;44614;54.356;10.100;2023-05-02T11:49:51;2.72;;;1.05;;
58842;SDS011;44614;54.356;10.100;2023-05-02T11:52:16;5.13;;;1.37;;
58842;SDS011;44614;54.356;10.100;2023-05-02T11:54:41;6.47;;;1.33;;
58842;SDS011;44614;54.356;10.100;2023-05-02T11:57:07;4.23;;;1.60;;
58842;SDS011;44614;54.356;10.100;2023-05-02T12:02:17;2.88;;;1.38;;
58842;SDS011;44614;54.356;10.100;2023-05-02T12:04:43;3.40;;;1.23;;
58842;SDS011;44614;54.356;10.100;2023-05-02T12:07:08;1.85;;;0.93;;
58842;SDS011;44614;54.356;10.100;2023-05-02T12:09:34;6.23;;;1.90;;
58842;SDS011;44614;54.356;10.100;2023-05-02T12:11:59;4.13;;;1.67;;
58842;SDS011;44614;54.356;10.100;2023-05-02T12:14:29;8.05;;;1.50;;
58842;SDS011;44614;54.356;10.100;2023-05-02T12:16:56;2.13;;;1.13;;
58842;SDS011;44614;54.356;10.100;2023-05-02T12:19:22;3.65;;;1.27;;
58842;SDS011;44614;54.356;10.100;2023-05-02T12:21:48;4.03;;;1.40;;
58842;SDS011;44614;54.356;10.100;2023-05-02T12:24:14;8.85;;;1.48;;
58842;SDS011;44614;54.356;10.100;2023-05-02T12:26:40;4.43;;;1.53;;
58842;SDS011;44614;54.356;10.100;2023-05-02T12:29:05;3.30;;;0.97;;
58842;SDS011;44614;54.356;10.100;2023-05-02T12:31:32;6.28;;;1.25;;
58842;SDS011;44614;54.356;10.100;2023-05-02T12:33:58;3.70;;;1.30;;
58842;SDS011;44614;54.356;10.100;2023-05-02T12:36:25;6.70;;;1.33;;
58842;SDS011;44614;54.356;10.100;2023-05-02T12:38:53;5.55;;;1.52;;
58842;SDS011;44614;54.356;10.100;2023-05-02T12:44:01;2.55;;;1.08;;
58842;SDS011;44614;54.356;10.100;2023-05-02T12:46:26;3.30;;;1.17;;
58842;SDS011;44614;54.356;10.100;2023-05-02T12:49:05;4.30;;;0.77;;
58842;SDS011;44614;54.356;10.100;2023-05-02T12:51:32;3.28;;;1.48;;
58842;SDS011;44614;54.356;10.100;2023-05-02T12:53:58;1.30;;;0.60;;
58842;SDS011;44614;54.356;10.100;2023-05-02T12:56:24;3.60;;;1.50;;
58842;SDS011;44614;54.356;10.100;2023-05-02T12:58:55;6.78;;;1.05;;
58842;SDS011;44614;54.356;10.100;2023-05-02T13:01:23;5.28;;;0.70;;
58842;SDS011;44614;54.356;10.100;2023-05-02T13:03:49;5.00;;;0.97;;
58842;SDS011;44614;54.356;10.100;2023-05-02T13:06:15;4.45;;;1.65;;
58842;SDS011;44614;54.356;10.100;2023-05-02T13:08:40;2.03;;;0.80;;
58842;SDS011;44614;54.356;10.100;2023-05-02T13:11:05;1.50;;;1.00;;
58842;SDS011;44614;54.356;10.100;2023-05-02T13:13:31;5.67;;;1.30;;
58842;SDS011;44614;54.356;10.100;2023-05-02T13:15:57;1.63;;;0.70;;
58842;SDS011;44614;54.356;10.100;2023-05-02T13:18:22;4.37;;;1.50;;
58842;SDS011;44614;54.356;10.100;2023-05-02T13:20:48;6.70;;;1.27;;
58842;SDS011;44614;54.356;10.100;2023-05-02T13:23:13;4.13;;;1.63;;
58842;SDS011;44614;54.356;10.100;2023-05-02T13:25:40;5.35;;;1.30;;
58842;SDS011;44614;54.356;10.100;2023-05-02T13:28:06;3.40;;;1.17;;
58842;SDS011;44614;54.356;10.100;2023-05-02T13:30:31;4.80;;;1.63;;
58842;SDS011;44614;54.356;10.100;2023-05-02T13:32:57;4.47;;;1.30;;
58842;SDS011;44614;54.356;10.100;2023-05-02T13:35:23;4.87;;;1.20;;
58842;SDS011;44614;54.356;10.100;2023-05-02T13:37:48;2.00;;;0.80;;
58842;SDS011;44614;54.356;10.100;2023-05-02T13:42:40;5.17;;;1.67;;
58842;SDS011;44614;54.356;10.100;2023-05-02T13:45:05;2.20;;;1.10;;
58842;SDS011;44614;54.356;10.100;2023-05-02T13:47:32;1.90;;;0.95;;
58842;SDS011;44614;54.356;10.100;2023-05-02T13:49:57;3.87;;;1.20;;
58842;SDS011;44614;54.356;10.100;2023-05-02T13:52:23;3.60;;;0.97;;
58842;SDS011;44614;54.356;10.100;2023-05-02T13:54:48;4.27;;;1.33;;
58842;SDS011;44614;54.356;10.100;2023-05-02T13:57:13;6.30;;;0.90;;
58842;SDS011;44614;54.356;10.100;2023-05-02T13:59:39;5.30;;;2.03;;
58842;SDS011;44614;54.356;10.100;2023-05-02T14:02:04;2.33;;;1.10;;
58842;SDS011;44614;54.356;10.100;2023-05-02T14:04:29;1.90;;;0.87;;
58842;SDS011;44614;54.356;10.100;2023-05-02T14:06:55;3.87;;;1.03;;
58842;SDS011;44614;54.356;10.100;2023-05-02T14:09:20;5.53;;;0.90;;
58842;SDS011;44614;54.356;10.100;2023-05-02T14:11:46;2.53;;;1.20;;
58842;SDS011;44614;54.356;10.100;2023-05-02T14:14:12;6.50;;;1.20;;
58842;SDS011;44614;54.356;10.100;2023-05-02T14:16:38;1.97;;;0.80;;
58842;SDS011;44614;54.356;10.100;2023-05-02T14:19:03;8.30;;;1.33;;
58842;SDS011;44614;54.356;10.100;2023-05-02T14:21:29;3.57;;;1.10;;
58842;SDS011;44614;54.356;10.100;2023-05-02T14:23:55;4.18;;;1.02;;
58842;SDS011;44614;54.356;10.100;2023-05-02T14:26:21;3.70;;;0.90;;
58842;SDS011;44614;54.356;10.100;2023-05-02T14:28:46;2.70;;;0.73;;
58842;SDS011;44614;54.356;10.100;2023-05-02T14:31:11;2.80;;;1.40;;
58842;SDS011;44614;54.356;10.100;2023-05-02T14:33:37;5.20;;;1.23;;
58842;SDS011;44614;54.356;10.100;2023-05-02T14:36:02;4.97;;;1.83;;
58842;SDS011;44614;54.356;10.100;2023-05-02T14:38:28;3.33;;;1.17;;
58842;SDS011;44614;54.356;10.100;2023-05-02T14:40:53;2.57;;;1.00;;
58842;SDS011;44614;54.356;10.100;2023-05-02T14:43:19;3.30;;;0.83;;
58842;SDS011;44614;54.356;10.100;2023-05-02T14:45:44;4.40;;;1.10;;
58842;SDS011;44614;54.356;10.100;2023-05-02T14:48:09;4.20;;;1.07;;
58842;SDS011;44614;54.356;10.100;2023-05-02T14:50:37;2.95;;;0.90;;
58842;SDS011;44614;54.356;10.100;2023-05-02T14:53:03;3.40;;;1.27;;
58842;SDS011;44614;54.356;10.100;2023-05-02T14:55:29;1.97;;;0.90;;
58842;SDS011;44614;54.356;10.100;2023-05-02T14:57:54;2.97;;;1.23;;
58842;SDS011;44614;54.356;10.100;2023-05-02T15:00:20;5.57;;;1.13;;
58842;SDS011;44614;54.356;10.100;2023-05-02T15:02:45;7.03;;;1.50;;
58842;SDS011;44614;54.356;10.100;2023-05-02T15:05:11;2.43;;;0.70;;
58842;SDS011;44614;54.356;10.100;2023-05-02T15:07:36;3.57;;;1.23;;
58842;SDS011;44614;54.356;10.100;2023-05-02T15:10:02;1.60;;;0.80;;
58842;SDS011;44614;54.356;10.100;2023-05-02T15:12:28;3.00;;;1.03;;
58842;SDS011;44614;54.356;10.100;2023-05-02T15:14:53;2.53;;;1.00;;
58842;SDS011;44614;54.356;10.100;2023-05-02T15:17:19;3.03;;;1.30;;
58842;SDS011;44614;54.356;10.100;2023-05-02T15:19:45;2.03;;;0.60;;
58842;SDS011;44614;54.356;10.100;2023-05-02T15:22:10;5.47;;;1.10;;
58842;SDS011;44614;54.356;10.100;2023-05-02T15:24:36;3.83;;;0.90;;
58842;SDS011;44614;54.356;10.100;2023-05-02T15:27:01;2.90;;;0.63;;
58842;SDS011;44614;54.356;10.100;2023-05-02T15:29:27;3.07;;;1.10;;
58842;SDS011;44614;54.356;10.100;2023-05-02T15:31:52;2.27;;;1.00;;
58842;SDS011;44614;54.356;10.100;2023-05-02T15:34:18;3.70;;;1.10;;
58842;SDS011;44614;54.356;10.100;2023-05-02T15:36:44;2.83;;;0.70;;
58842;SDS011;44614;54.356;10.100;2023-05-02T15:39:09;4.27;;;1.00;;
58842;SDS011;44614;54.356;10.100;2023-05-02T15:41:35;4.20;;;0.97;;
58842;SDS011;44614;54.356;10.100;2023-05-02T15:44:00;4.83;;;1.20;;